Time;durP1;ratioP1;P1;durP2;ratioP2;P2;SDS_P1;SDS_P2;PMS_P1;PMS_P2;Temp;Humidity;BMP_temperature;BMP_pressure;BME280_temperature;BME280_humidity;BME280_pressure;Samples;Min_cycle;Max_cycle;Signal;HPM_P1;HPM_P2
2021/08/15 00:02:46;;;;;;;1.48;0.95;;;25.40;48.20;;;;;;6241817;28;20101;-72
2021/08/15 00:05:47;;;;;;;2.97;1.50;;;25.40;48.20;;;;;;6242403;28;20040;-71
2021/08/15 00:08:48;;;;;;;2.30;1.20;;;25.40;48.20;;;;;;6241451;28;20109;-72
2021/08/15 00:11:48;;;;;;;2.03;1.20;;;25.40;48.20;;;;;;6241739;28;20033;-72
2021/08/15 00:14:49;;;;;;;2.72;1.40;;;25.40;48.20;;;;;;6242015;28;20390;-72
2021/08/15 00:17:49;;;;;;;2.17;1.10;;;25.40;48.30;;;;;;6241937;28;20025;-72
2021/08/15 00:20:50;;;;;;;1.13;0.98;;;25.40;48.20;;;;;;6241085;28;20045;-72
2021/08/15 00:23:50;;;;;;;1.63;1.23;;;25.40;48.20;;;;;;6240376;28;20143;-72
2021/08/15 00:26:51;;;;;;;1.30;1.10;;;25.40;48.80;;;;;;6241711;28;20044;-72
2021/08/15 00:29:51;;;;;;;1.95;1.35;;;25.40;48.10;;;;;;6240589;28;20037;-72
2021/08/15 00:32:52;;;;;;;1.30;0.90;;;25.40;48.20;;;;;;6241456;28;20045;-72
2021/08/15 00:35:52;;;;;;;1.30;0.90;;;25.40;48.20;;;;;;6241609;28;20116;-72
2021/08/15 00:38:53;;;;;;;1.52;1.00;;;25.40;48.20;;;;;;6240949;28;20037;-72
2021/08/15 00:41:53;;;;;;;1.80;1.20;;;25.40;48.20;;;;;;6241330;28;20034;-72
2021/08/15 00:44:55;;;;;;;1.98;1.08;;;25.40;48.20;;;;;;6240615;28;20025;-72
2021/08/15 00:47:55;;;;;;;1.20;1.00;;;25.40;48.10;;;;;;6241139;28;20132;-72
2021/08/15 00:50:56;;;;;;;1.20;1.00;;;25.40;48.10;;;;;;6240353;28;20021;-72
2021/08/15 00:53:58;;;;;;;1.85;1.15;;;25.40;48.10;;;;;;6240864;28;20431;-72
2021/08/15 00:57:01;;;;;;;1.50;1.20;;;25.40;48.20;;;;;;6241120;28;20132;-72
2021/08/15 01:00:05;;;;;;;1.27;1.08;;;25.40;48.10;;;;;;6240243;28;20112;-72
2021/08/15 01:03:05;;;;;;;0.98;0.80;;;25.40;48.10;;;;;;6240004;28;20033;-72
2021/08/15 01:06:07;;;;;;;1.27;0.90;;;25.40;48.00;;;;;;6240523;28;20060;-72
2021/08/15 01:09:08;;;;;;;1.23;1.13;;;25.40;48.00;;;;;;6240273;28;20037;-72
2021/08/15 01:12:08;;;;;;;1.65;1.08;;;25.40;48.10;;;;;;6240338;28;20072;-72
2021/08/15 01:15:10;;;;;;;1.15;0.90;;;25.40;48.10;;;;;;6240660;28;20030;-72
2021/08/15 01:18:25;;;;;;;1.60;1.05;;;25.40;48.70;;;;;;6243315;28;20061;-72
2021/08/15 01:21:27;;;;;;;;;;;25.40;48.00;;;;;;6241112;28;20037;-72
2021/08/15 01:24:27;;;;;;;1.40;0.90;;;25.40;47.90;;;;;;6240267;28;20006;-72
2021/08/15 01:27:28;;;;;;;1.10;1.00;;;25.40;48.00;;;;;;6238594;28;20029;-71
2021/08/15 01:30:29;;;;;;;1.10;1.00;;;25.40;48.00;;;;;;6240389;28;20029;-72
2021/08/15 01:33:33;;;;;;;1.10;0.90;;;25.40;48.00;;;;;;6241820;28;20032;-72
2021/08/15 01:36:33;;;;;;;1.00;0.70;;;25.50;48.00;;;;;;6245074;28;20021;-72
2021/08/15 01:39:34;;;;;;;1.27;0.90;;;25.40;47.90;;;;;;6245226;28;20033;-72
2021/08/15 01:42:34;;;;;;;1.35;1.08;;;25.40;47.90;;;;;;6244642;28;20048;-72
2021/08/15 01:45:35;;;;;;;0.80;0.70;;;25.40;47.90;;;;;;6244927;28;20027;-72
2021/08/15 01:48:35;;;;;;;1.15;1.02;;;25.50;47.90;;;;;;6244872;28;20463;-72
2021/08/15 01:51:36;;;;;;;1.65;0.98;;;25.50;47.90;;;;;;6245002;28;20044;-72
2021/08/15 01:54:36;;;;;;;1.05;0.95;;;25.50;47.90;;;;;;6245020;28;20040;-72
2021/08/15 01:57:37;;;;;;;0.98;0.88;;;25.50;47.90;;;;;;6244207;28;20380;-72
2021/08/15 02:00:40;;;;;;;1.05;0.90;;;25.40;47.80;;;;;;6244583;28;20030;-72
2021/08/15 02:03:40;;;;;;;0.95;0.80;;;25.40;47.80;;;;;;6244690;28;20013;-72
2021/08/15 02:06:41;;;;;;;1.17;0.90;;;25.40;47.90;;;;;;6244689;28;20508;-72
2021/08/15 02:09:41;;;;;;;1.13;0.90;;;25.40;47.80;;;;;;6244237;28;20100;-72
2021/08/15 02:12:42;;;;;;;0.80;0.73;;;25.40;47.90;;;;;;6244395;28;20037;-72
2021/08/15 02:15:42;;;;;;;0.90;0.80;;;25.40;47.80;;;;;;6227058;28;20615;-72
2021/08/15 02:18:43;;;;;;;1.40;0.98;;;25.40;47.80;;;;;;6244843;28;20441;-72
2021/08/15 02:21:43;;;;;;;0.63;0.60;;;25.40;47.80;;;;;;6244055;28;20040;-72
2021/08/15 02:24:44;;;;;;;0.70;0.70;;;25.40;47.80;;;;;;6244414;28;20096;-72
2021/08/15 02:27:45;;;;;;;2.78;0.90;;;25.40;47.80;;;;;;6244162;28;20029;-72
2021/08/15 02:30:46;;;;;;;1.38;0.70;;;25.30;49.00;;;;;;6244007;28;20033;-72
2021/08/15 02:33:46;;;;;;;1.65;0.93;;;25.20;49.80;;;;;;6243808;28;20540;-72
2021/08/15 02:36:47;;;;;;;0.90;0.80;;;25.10;50.10;;;;;;6244035;28;20041;-71
2021/08/15 02:39:47;;;;;;;0.88;0.80;;;25.10;50.40;;;;;;6243742;28;20036;-72
2021/08/15 02:42:50;;;;;;;1.05;0.80;;;25.00;50.60;;;;;;6243622;28;20029;-72
2021/08/15 02:45:50;;;;;;;1.38;1.10;;;25.00;51.60;;;;;;6242424;28;20033;-72
2021/08/15 02:48:51;;;;;;;1.10;0.80;;;25.00;50.90;;;;;;6243580;28;20084;-72
2021/08/15 02:51:51;;;;;;;0.90;0.80;;;24.90;51.10;;;;;;6243814;28;20087;-72
2021/08/15 02:54:52;;;;;;;1.13;0.90;;;24.90;51.10;;;;;;6243905;28;20067;-72
2021/08/15 02:57:53;;;;;;;0.82;0.75;;;24.90;51.20;;;;;;6242600;28;20509;-72
2021/08/15 03:00:54;;;;;;;1.00;0.90;;;24.90;51.40;;;;;;6243692;28;20041;-72
2021/08/15 03:03:54;;;;;;;1.17;0.80;;;24.90;51.50;;;;;;6243949;28;20061;-72
2021/08/15 03:06:55;;;;;;;1.23;0.80;;;24.80;51.50;;;;;;6243599;28;20056;-73
2021/08/15 03:09:55;;;;;;;0.70;0.65;;;24.90;51.70;;;;;;6242920;28;20036;-72
2021/08/15 03:12:56;;;;;;;1.55;0.90;;;24.80;51.70;;;;;;6243560;28;20025;-72
2021/08/15 03:15:56;;;;;;;0.90;0.80;;;24.80;51.70;;;;;;6218739;28;20034;-72
2021/08/15 03:18:57;;;;;;;1.30;0.80;;;24.80;51.80;;;;;;6241431;28;20378;-72
2021/08/15 03:21:57;;;;;;;1.17;0.80;;;24.80;51.90;;;;;;6242814;28;20363;-72
2021/08/15 03:24:59;;;;;;;0.82;0.73;;;24.80;51.90;;;;;;6243367;28;20033;-72
2021/08/15 03:27:59;;;;;;;1.27;1.10;;;24.80;52.00;;;;;;6242412;28;20029;-72
2021/08/15 03:31:00;;;;;;;1.65;1.00;;;24.80;52.10;;;;;;6242518;28;20253;-72
2021/08/15 03:34:00;;;;;;;1.00;0.80;;;24.80;52.10;;;;;;6242512;28;20432;-72
2021/08/15 03:37:01;;;;;;;1.27;0.90;;;24.80;52.10;;;;;;6242730;28;20128;-72
2021/08/15 03:40:02;;;;;;;1.13;0.82;;;24.80;52.20;;;;;;6242232;28;20068;-72
2021/08/15 03:43:03;;;;;;;1.13;0.90;;;24.80;52.30;;;;;;6242611;28;20029;-72
2021/08/15 03:46:03;;;;;;;1.40;1.10;;;24.80;52.30;;;;;;6242110;28;20021;-72
2021/08/15 03:49:04;;;;;;;1.05;0.90;;;24.80;52.40;;;;;;6242700;28;20017;-72
2021/08/15 03:52:04;;;;;;;1.08;0.90;;;24.80;52.40;;;;;;6242064;28;20539;-72
2021/08/15 03:55:07;;;;;;;1.20;1.00;;;24.80;52.50;;;;;;6242225;28;20440;-72
2021/08/15 03:58:07;;;;;;;1.35;1.08;;;24.80;52.60;;;;;;6241582;28;20042;-72
2021/08/15 04:01:08;;;;;;;1.35;0.90;;;24.80;52.70;;;;;;6241898;28;20036;-72
2021/08/15 04:04:09;;;;;;;1.08;0.98;;;24.80;52.80;;;;;;6241703;28;20049;-72
2021/08/15 04:07:10;;;;;;;1.00;0.90;;;24.80;52.90;;;;;;6244549;28;20030;-72
2021/08/15 04:10:10;;;;;;;1.77;1.10;;;24.70;52.90;;;;;;6243758;28;20040;-72
2021/08/15 04:13:11;;;;;;;1.60;0.90;;;24.70;53.00;;;;;;6241588;28;20507;-72
2021/08/15 04:16:12;;;;;;;1.23;1.00;;;24.80;53.10;;;;;;6241688;28;20498;-72
2021/08/15 04:19:12;;;;;;;1.10;0.93;;;24.70;53.10;;;;;;6241514;28;20038;-72
2021/08/15 04:22:13;;;;;;;1.10;0.85;;;24.80;53.30;;;;;;6241436;28;20029;-72
2021/08/15 04:25:14;;;;;;;1.00;0.90;;;24.70;53.20;;;;;;6241855;28;20025;-72
2021/08/15 04:28:14;;;;;;;0.90;0.75;;;24.70;53.20;;;;;;6241334;28;20048;-72
2021/08/15 04:31:15;;;;;;;1.00;0.80;;;24.70;53.30;;;;;;6241080;28;20105;-72
2021/08/15 04:34:15;;;;;;;0.98;0.85;;;24.70;53.30;;;;;;6241517;28;20033;-71
2021/08/15 04:37:18;;;;;;;1.25;0.90;;;24.70;53.40;;;;;;6240938;28;20040;-72
2021/08/15 04:40:18;;;;;;;1.02;0.90;;;24.70;53.40;;;;;;6239991;28;20447;-72
2021/08/15 04:43:19;;;;;;;1.00;0.90;;;24.70;53.50;;;;;;6241429;28;20021;-72
2021/08/15 04:46:20;;;;;;;1.27;0.90;;;24.70;53.50;;;;;;6240976;28;20317;-72
2021/08/15 04:49:20;;;;;;;0.93;0.70;;;24.70;53.50;;;;;;6240450;28;20060;-72
2021/08/15 04:52:21;;;;;;;1.13;0.90;;;24.70;53.50;;;;;;6241471;28;20021;-72
2021/08/15 04:55:21;;;;;;;1.35;0.80;;;24.70;53.60;;;;;;6241361;28;20052;-72
2021/08/15 04:58:22;;;;;;;1.27;0.90;;;24.70;53.60;;;;;;6240593;28;20049;-72
2021/08/15 05:01:23;;;;;;;2.00;0.90;;;24.70;53.60;;;;;;6234682;28;20060;-72
2021/08/15 05:04:23;;;;;;;0.65;0.65;;;24.70;53.70;;;;;;6227108;28;20025;-71
2021/08/15 05:07:24;;;;;;;1.20;0.95;;;24.70;54.30;;;;;;6241154;28;20079;-72
2021/08/15 05:10:24;;;;;;;1.27;0.77;;;24.70;53.70;;;;;;6239943;28;20027;-72
2021/08/15 05:13:28;;;;;;;1.10;0.90;;;24.70;53.70;;;;;;6240492;28;20123;-72
2021/08/15 05:16:29;;;;;;;1.42;1.10;;;24.70;53.80;;;;;;6240916;28;20029;-72
2021/08/15 05:19:31;;;;;;;1.30;0.98;;;24.70;53.80;;;;;;6240465;28;20393;-72
2021/08/15 05:22:31;;;;;;;0.80;0.77;;;24.70;53.90;;;;;;6240321;28;20457;-72
2021/08/15 05:25:32;;;;;;;2.00;0.95;;;24.60;53.80;;;;;;6240618;28;20034;-72
2021/08/15 05:28:32;;;;;;;0.75;0.70;;;24.60;53.80;;;;;;6240739;28;20033;-72
2021/08/15 05:31:33;;;;;;;1.05;0.70;;;24.60;53.80;;;;;;6239837;28;20028;-72
2021/08/15 05:34:33;;;;;;;0.80;0.80;;;24.60;53.80;;;;;;6239490;28;20536;-72
2021/08/15 05:37:34;;;;;;;0.52;0.52;;;24.60;53.90;;;;;;6240410;28;20038;-72
2021/08/15 05:40:34;;;;;;;1.15;0.80;;;24.60;53.90;;;;;;6240695;28;20446;-72
2021/08/15 05:43:35;;;;;;;1.25;0.90;;;24.60;53.90;;;;;;6240532;28;20385;-72
2021/08/15 05:46:35;;;;;;;1.15;0.90;;;24.60;54.00;;;;;;6240274;28;20030;-72
2021/08/15 05:49:36;;;;;;;0.95;0.80;;;24.60;54.00;;;;;;6240261;28;20026;-73
2021/08/15 05:52:37;;;;;;;0.88;0.80;;;24.60;54.00;;;;;;6240213;28;20033;-72
2021/08/15 05:55:38;;;;;;;1.15;0.88;;;24.60;54.00;;;;;;6240041;28;20075;-72
2021/08/15 05:58:38;;;;;;;0.88;0.70;;;24.60;54.00;;;;;;6240514;28;20038;-72
2021/08/15 06:01:39;;;;;;;1.15;0.82;;;24.60;54.00;;;;;;6240162;28;20028;-72
2021/08/15 06:04:39;;;;;;;1.23;0.90;;;24.60;54.10;;;;;;6241318;28;20088;-72
2021/08/15 06:07:40;;;;;;;1.52;0.60;;;24.60;54.10;;;;;;6239930;28;20385;-72
2021/08/15 06:10:41;;;;;;;0.82;0.70;;;24.60;54.10;;;;;;6240138;28;20504;-73
2021/08/15 06:13:42;;;;;;;0.98;0.75;;;24.60;54.20;;;;;;6234892;28;20030;-72
2021/08/15 06:16:42;;;;;;;0.95;0.80;;;24.60;54.10;;;;;;6222308;28;20665;-72
2021/08/15 06:19:43;;;;;;;0.85;0.70;;;24.60;54.20;;;;;;6240804;28;20053;-72
2021/08/15 06:22:46;;;;;;;0.88;0.68;;;24.60;54.20;;;;;;6243611;28;20026;-72
2021/08/15 06:25:47;;;;;;;0.85;0.70;;;24.60;54.20;;;;;;6244673;28;20379;-73
2021/08/15 06:28:47;;;;;;;1.02;0.80;;;24.60;54.30;;;;;;6244437;28;20539;-72
2021/08/15 06:31:48;;;;;;;1.10;0.77;;;24.60;54.30;;;;;;6243493;28;20030;-72
2021/08/15 06:34:48;;;;;;;1.00;0.80;;;24.60;54.30;;;;;;6244530;28;20061;-72
2021/08/15 06:37:52;;;;;;;0.75;0.68;;;24.60;54.30;;;;;;6244027;28;20034;-72
2021/08/15 06:40:53;;;;;;;0.93;0.80;;;24.60;54.30;;;;;;6244432;28;20025;-72
2021/08/15 06:43:54;;;;;;;1.00;0.70;;;24.60;55.10;;;;;;6243966;28;20461;-72
2021/08/15 06:46:54;;;;;;;0.88;0.70;;;24.60;54.40;;;;;;6243728;28;20038;-72
2021/08/15 06:49:55;;;;;;;1.60;0.88;;;24.60;54.40;;;;;;6243580;28;20030;-72
2021/08/15 06:52:56;;;;;;;0.77;0.60;;;24.60;54.40;;;;;;6243787;28;20452;-72
2021/08/15 06:55:58;;;;;;;0.75;0.60;;;24.60;54.40;;;;;;6243797;28;20041;-72
2021/08/15 06:58:58;;;;;;;0.90;0.60;;;24.60;54.40;;;;;;6243451;28;20060;-71
2021/08/15 07:01:59;;;;;;;0.95;0.77;;;24.60;54.50;;;;;;6243474;28;20037;-72
2021/08/15 07:04:59;;;;;;;0.80;0.73;;;24.60;54.50;;;;;;6243258;28;20459;-72
2021/08/15 07:08:00;;;;;;;1.10;0.75;;;24.60;54.50;;;;;;6243166;28;20033;-72
2021/08/15 07:11:00;;;;;;;0.70;0.60;;;24.60;54.50;;;;;;6243159;28;20026;-72
2021/08/15 07:14:01;;;;;;;1.17;0.70;;;24.60;54.60;;;;;;6242779;28;20108;-71
2021/08/15 07:17:02;;;;;;;0.73;0.70;;;24.60;54.60;;;;;;6243203;28;20094;-72
2021/08/15 07:20:05;;;;;;;0.98;0.60;;;24.60;54.60;;;;;;6243243;28;20044;-72
2021/08/15 07:23:05;;;;;;;0.88;0.80;;;24.60;54.60;;;;;;6243052;28;20017;-72
2021/08/15 07:26:06;;;;;;;0.90;0.80;;;24.60;54.60;;;;;;6243146;28;20376;-72
2021/08/15 07:29:06;;;;;;;1.10;0.90;;;24.60;54.70;;;;;;6241615;28;20021;-72
2021/08/15 07:32:07;;;;;;;1.45;0.88;;;24.60;54.70;;;;;;6242482;28;20022;-72
2021/08/15 07:35:08;;;;;;;0.95;0.85;;;24.60;54.70;;;;;;6240365;28;20428;-72
2021/08/15 07:38:08;;;;;;;0.85;0.70;;;24.60;54.70;;;;;;6242545;28;20037;-72
2021/08/15 07:41:10;;;;;;;0.82;0.70;;;24.60;54.70;;;;;;6242742;28;20041;-72
2021/08/15 07:44:10;;;;;;;0.98;0.80;;;24.60;54.80;;;;;;6241995;28;20868;-72
2021/08/15 07:47:11;;;;;;;2.67;0.77;;;24.60;54.80;;;;;;6242696;28;20036;-71
2021/08/15 07:50:11;;;;;;;1.55;1.00;;;24.60;54.80;;;;;;6242438;28;20075;-72
2021/08/15 07:53:21;;;;;;;1.65;0.60;;;24.60;54.80;;;;;;6242329;28;20080;-72
2021/08/15 07:56:22;;;;;;;0.85;0.75;;;24.60;54.80;;;;;;6242277;28;20060;-71
2021/08/15 07:59:23;;;;;;;0.85;0.80;;;24.60;54.80;;;;;;6241259;28;20038;-72
2021/08/15 08:02:24;;;;;;;1.05;0.80;;;24.60;54.80;;;;;;6241737;28;20443;-72
2021/08/15 08:05:24;;;;;;;1.00;0.65;;;24.60;54.90;;;;;;6241341;28;20108;-72
2021/08/15 08:08:25;;;;;;;0.90;0.70;;;24.60;54.90;;;;;;6241889;28;20030;-72
2021/08/15 08:11:25;;;;;;;0.95;0.80;;;24.60;54.90;;;;;;6240622;28;20158;-72
2021/08/15 08:14:26;;;;;;;0.90;0.60;;;24.60;54.90;;;;;;6242057;28;20056;-72
2021/08/15 08:17:26;;;;;;;0.82;0.82;;;24.60;54.90;;;;;;6242132;28;20072;-72
2021/08/15 08:20:28;;;;;;;0.85;0.75;;;24.60;54.90;;;;;;6241545;28;20439;-72
2021/08/15 08:23:29;;;;;;;1.10;0.70;;;24.60;55.00;;;;;;6241822;28;20025;-72
2021/08/15 08:26:30;;;;;;;0.80;0.70;;;24.60;55.00;;;;;;6241570;28;20029;-72
2021/08/15 08:29:30;;;;;;;0.90;0.70;;;24.60;55.00;;;;;;6241116;28;20040;-72
2021/08/15 08:32:31;;;;;;;0.57;0.57;;;24.60;55.00;;;;;;6241209;28;20072;-72
2021/08/15 08:35:31;;;;;;;1.73;0.75;;;24.60;55.00;;;;;;6241227;28;20543;-72
2021/08/15 08:38:32;;;;;;;1.25;0.80;;;24.60;55.00;;;;;;6241058;28;20029;-72
2021/08/15 08:41:33;;;;;;;1.10;0.68;;;24.50;55.00;;;;;;6240939;28;20037;-72
2021/08/15 08:44:36;;;;;;;0.73;0.60;;;24.60;55.10;;;;;;6240952;28;20059;-72
2021/08/15 08:47:36;;;;;;;1.00;0.70;;;24.60;55.10;;;;;;6241192;28;20096;-72
2021/08/15 08:50:37;;;;;;;1.08;0.85;;;24.60;55.10;;;;;;6240621;28;20579;-72
2021/08/15 08:53:38;;;;;;;1.48;0.90;;;24.60;55.10;;;;;;6240969;28;20034;-72
2021/08/15 08:56:38;;;;;;;0.60;0.60;;;24.60;55.10;;;;;;6240397;28;20543;-71
2021/08/15 08:59:39;;;;;;;0.60;0.60;;;24.60;55.20;;;;;;6240634;28;20114;-72
2021/08/15 09:02:40;;;;;;;0.70;0.60;;;24.60;55.20;;;;;;6240936;28;20144;-72
2021/08/15 09:05:49;;;;;;;1.02;0.80;;;24.50;55.10;;;;;;6238953;28;20056;-72
2021/08/15 09:08:51;;;;;;;0.75;0.68;;;24.50;55.10;;;;;;6240882;28;20032;-72
2021/08/15 09:11:59;;;;;;;0.60;0.60;;;24.50;55.10;;;;;;6240312;28;20547;-72
2021/08/15 09:15:17;;;;;;;1.02;0.70;;;24.50;55.10;;;;;;6224563;28;20080;-72
2021/08/15 09:18:32;;;;;;;0.70;0.60;;;24.50;55.20;;;;;;6216257;28;20033;-72
2021/08/15 09:21:34;;;;;;;0.75;0.63;;;24.50;55.20;;;;;;6227479;28;20025;-72
2021/08/15 09:24:45;;;;;;;1.10;0.82;;;24.50;55.20;;;;;;6240464;28;20389;-72
2021/08/15 09:27:51;;;;;;;1.85;0.77;;;24.50;55.20;;;;;;6239710;28;20029;-71
2021/08/15 09:30:51;;;;;;;1.02;0.70;;;24.50;55.20;;;;;;6240021;28;20477;-72
2021/08/15 09:33:54;;;;;;;1.05;0.73;;;24.50;55.30;;;;;;6240550;28;20246;-71
2021/08/15 09:36:55;;;;;;;0.90;0.70;;;24.50;55.30;;;;;;6240269;28;20489;-72
2021/08/15 09:39:56;;;;;;;0.60;0.50;;;24.50;55.30;;;;;;6240771;28;20034;-72
2021/08/15 09:42:58;;;;;;;0.52;0.52;;;24.50;55.30;;;;;;6240085;28;20025;-72
2021/08/15 09:46:00;;;;;;;1.15;0.60;;;24.50;55.30;;;;;;6240215;28;20033;-71
2021/08/15 09:49:13;;;;;;;0.60;0.60;;;24.50;55.30;;;;;;6241131;28;20034;-72
2021/08/15 09:52:16;;;;;;;0.93;0.80;;;24.50;55.30;;;;;;6239606;28;20088;-72
2021/08/15 09:55:17;;;;;;;0.90;0.68;;;24.50;55.30;;;;;;6242789;28;20025;-71
2021/08/15 09:58:18;;;;;;;1.00;0.80;;;24.50;55.30;;;;;;6244499;28;20072;-72
2021/08/15 10:01:19;;;;;;;0.90;0.77;;;24.50;55.30;;;;;;6244378;28;20036;-72
2021/08/15 10:04:21;;;;;;;1.25;0.70;;;24.50;55.30;;;;;;6244832;28;20014;-72
2021/08/15 10:07:22;;;;;;;0.68;0.60;;;24.50;55.30;;;;;;6244934;28;20068;-71
2021/08/15 10:10:23;;;;;;;0.57;0.57;;;24.50;55.40;;;;;;6244239;28;20029;-72
2021/08/15 10:13:24;;;;;;;0.50;0.40;;;24.50;55.40;;;;;;6241090;28;20037;-72
2021/08/15 10:16:29;;;;;;;0.70;0.70;;;24.50;55.40;;;;;;6221911;28;20034;-72
2021/08/15 10:19:54;;;;;;;0.60;0.50;;;24.50;55.40;;;;;;6244312;28;20060;-72
2021/08/15 10:23:11;;;;;;;0.82;0.50;;;24.50;55.30;;;;;;6244866;28;20102;-71
2021/08/15 10:26:36;;;;;;;0.98;0.60;;;24.50;55.40;;;;;;6244523;28;20511;-72
2021/08/15 10:29:41;;;;;;;0.50;0.50;;;24.50;55.40;;;;;;6244005;28;20025;-72
2021/08/15 10:32:57;;;;;;;0.88;0.52;;;24.50;55.40;;;;;;6242383;28;20107;-72
2021/08/15 10:36:21;;;;;;;0.90;0.80;;;24.50;55.40;;;;;;6244316;28;20033;-72
2021/08/15 10:39:36;;;;;;;0.80;0.77;;;24.50;55.40;;;;;;6243947;28;20040;-71
2021/08/15 10:42:39;;;;;;;1.23;0.70;;;24.50;55.40;;;;;;6243765;28;20076;-72
2021/08/15 10:45:41;;;;;;;1.05;0.60;;;24.50;55.50;;;;;;6244074;28;20171;-72
2021/08/15 10:49:01;;;;;;;1.58;0.90;;;24.50;55.50;;;;;;6243831;28;20104;-72
2021/08/15 10:52:41;;;;;;;1.58;0.90;;;24.50;55.50;;;;;;6242770;28;20022;-71
2021/08/15 10:55:42;;;;;;;1.00;0.85;;;24.50;55.50;;;;;;6243083;28;20030;-72
2021/08/15 10:58:46;;;;;;;0.77;0.75;;;24.50;55.50;;;;;;6243818;28;20025;-72
2021/08/15 11:01:46;;;;;;;1.20;0.85;;;24.50;55.60;;;;;;6242987;28;20218;-71
2021/08/15 11:04:59;;;;;;;1.48;0.90;;;24.50;55.50;;;;;;6243532;28;20038;-72
2021/08/15 11:07:59;;;;;;;0.80;0.70;;;24.50;55.60;;;;;;6244990;28;20036;-72
2021/08/15 11:11:07;;;;;;;0.90;0.60;;;24.50;55.60;;;;;;6243177;28;20477;-72
2021/08/15 11:14:20;;;;;;;0.70;0.60;;;24.50;55.60;;;;;;6233202;28;20022;-72
2021/08/15 11:17:21;;;;;;;0.85;0.70;;;24.50;55.60;;;;;;6240150;28;20033;-72
2021/08/15 11:20:36;;;;;;;0.93;0.73;;;24.50;55.60;;;;;;6242646;28;20504;-72
2021/08/15 11:23:36;;;;;;;0.80;0.68;;;24.50;55.60;;;;;;6242816;28;20038;-72
2021/08/15 11:26:37;;;;;;;0.88;0.60;;;24.50;55.60;;;;;;6242866;28;20054;-71
2021/08/15 11:29:38;;;;;;;0.70;0.60;;;24.50;55.70;;;;;;6242462;28;20112;-72
2021/08/15 11:32:40;;;;;;;1.15;0.90;;;24.50;55.70;;;;;;6242578;28;20484;-72
2021/08/15 11:35:44;;;;;;;0.85;0.70;;;24.50;55.70;;;;;;6242435;28;20061;-72
2021/08/15 11:38:48;;;;;;;1.00;0.60;;;24.50;55.70;;;;;;6242136;28;20033;-72
2021/08/15 11:41:49;;;;;;;1.05;0.90;;;24.50;55.70;;;;;;6242498;28;20392;-72
2021/08/15 11:44:59;;;;;;;0.60;0.60;;;24.50;56.40;;;;;;6242299;28;20022;-72
2021/08/15 11:48:25;;;;;;;0.70;0.60;;;24.50;55.70;;;;;;6242587;28;20026;-71
2021/08/15 11:51:25;;;;;;;0.88;0.60;;;24.50;55.70;;;;;;6241300;28;20041;-72
2021/08/15 11:54:38;;;;;;;0.95;0.70;;;24.50;55.70;;;;;;6242516;28;20384;-72
2021/08/15 11:57:54;;;;;;;1.13;0.95;;;24.50;55.80;;;;;;6242106;28;20480;-72
2021/08/15 12:00:54;;;;;;;;;;;24.50;55.80;;;;;;6242399;28;20412;-72
2021/08/15 12:04:01;;;;;;;1.02;0.70;;;24.50;55.80;;;;;;6242137;28;19915;-72
2021/08/15 12:07:02;;;;;;;0.70;0.70;;;24.50;55.80;;;;;;6241911;28;20431;-72
2021/08/15 12:10:23;;;;;;;0.73;0.63;;;24.50;55.80;;;;;;6241425;28;20060;-71
2021/08/15 12:13:33;;;;;;;0.77;0.75;;;24.50;55.80;;;;;;6241806;28;20041;-72
2021/08/15 12:16:35;;;;;;;0.80;0.60;;;24.50;55.80;;;;;;6241303;28;20032;-71
2021/08/15 12:19:36;;;;;;;0.80;0.68;;;24.50;55.80;;;;;;6241403;28;20245;-72
2021/08/15 12:22:37;;;;;;;0.70;0.60;;;24.50;55.80;;;;;;6241527;28;20033;-72
2021/08/15 12:25:38;;;;;;;0.90;0.80;;;24.50;55.80;;;;;;6241251;28;20495;-72
2021/08/15 12:28:38;;;;;;;0.95;0.73;;;24.50;55.80;;;;;;6241394;28;20036;-72
2021/08/15 12:31:39;;;;;;;0.65;0.60;;;24.50;55.80;;;;;;6241069;28;20380;-72
2021/08/15 12:34:44;;;;;;;0.60;0.57;;;24.50;55.80;;;;;;6241002;28;20485;-72
2021/08/15 12:37:44;;;;;;;;;;;24.50;55.90;;;;;;6241933;28;20036;-72
2021/08/15 12:40:45;;;;;;;1.13;0.63;;;24.50;55.90;;;;;;6240973;28;19909;-72
2021/08/15 12:44:11;;;;;;;1.35;0.80;;;24.50;55.90;;;;;;6240926;28;20037;-72
2021/08/15 12:47:11;;;;;;;0.85;0.70;;;24.50;55.90;;;;;;6237922;28;20440;-71
2021/08/15 12:50:18;;;;;;;0.90;0.75;;;24.50;55.90;;;;;;6240273;28;20106;-72
2021/08/15 12:53:22;;;;;;;2.28;0.70;;;24.50;55.90;;;;;;6241067;28;20064;-72
2021/08/15 12:56:25;;;;;;;0.97;0.60;;;24.50;55.90;;;;;;6240695;28;20049;-72
2021/08/15 12:59:27;;;;;;;1.50;0.82;;;24.50;55.90;;;;;;6240361;28;20322;-71
2021/08/15 13:02:28;;;;;;;0.90;0.75;;;24.50;55.90;;;;;;6239914;28;20098;-72
2021/08/15 13:05:31;;;;;;;0.90;0.60;;;24.50;55.90;;;;;;6240313;28;20457;-71
2021/08/15 13:08:32;;;;;;;0.60;0.60;;;24.50;56.00;;;;;;6240556;28;20022;-71
2021/08/15 13:11:33;;;;;;;0.98;0.70;;;24.50;55.90;;;;;;6240307;28;20446;-72
2021/08/15 13:14:33;;;;;;;0.80;0.70;;;24.50;56.00;;;;;;6227827;28;20033;-72
2021/08/15 13:17:34;;;;;;;1.73;0.70;;;24.50;56.00;;;;;;6229748;28;20040;-72
2021/08/15 13:20:38;;;;;;;0.60;0.60;;;24.50;56.00;;;;;;6240674;28;20036;-72
2021/08/15 13:23:39;;;;;;;0.70;0.70;;;24.50;56.00;;;;;;6240426;28;20292;-72
2021/08/15 13:26:39;;;;;;;0.68;0.50;;;24.50;56.00;;;;;;6239981;28;20285;-72
2021/08/15 13:29:40;;;;;;;0.55;0.40;;;24.50;56.00;;;;;;6240966;28;20586;-71
2021/08/15 13:32:41;;;;;;;1.02;0.93;;;24.50;56.00;;;;;;6245452;28;20516;-71
2021/08/15 13:35:42;;;;;;;0.90;0.80;;;24.50;56.00;;;;;;6245614;28;20036;-72
2021/08/15 13:38:42;;;;;;;0.85;0.65;;;24.50;56.00;;;;;;6244653;28;20033;-72
2021/08/15 13:41:43;;;;;;;0.85;0.77;;;24.50;56.00;;;;;;6244883;28;20104;-72
2021/08/15 13:44:43;;;;;;;0.80;0.70;;;24.50;56.10;;;;;;6246151;28;20475;-72
2021/08/15 13:47:45;;;;;;;0.65;0.63;;;24.50;56.00;;;;;;6244712;28;20400;-72
2021/08/15 13:50:45;;;;;;;0.70;0.60;;;24.50;56.10;;;;;;6244242;28;20060;-72
2021/08/15 13:53:46;;;;;;;1.00;0.60;;;24.50;56.10;;;;;;6244692;28;20435;-71
2021/08/15 13:56:46;;;;;;;0.82;0.70;;;24.50;56.00;;;;;;6244626;28;20089;-72
2021/08/15 13:59:51;;;;;;;0.90;0.70;;;24.50;56.10;;;;;;6243494;28;20048;-71
2021/08/15 14:02:51;;;;;;;0.40;0.40;;;24.50;56.10;;;;;;6244519;28;20033;-72
2021/08/15 14:05:52;;;;;;;0.73;0.65;;;24.50;56.10;;;;;;6245194;28;20068;-71
2021/08/15 14:08:52;;;;;;;0.93;0.80;;;24.50;56.10;;;;;;6243083;28;20433;-72
2021/08/15 14:11:53;;;;;;;0.73;0.68;;;24.50;56.10;;;;;;6243908;28;20034;-72
2021/08/15 14:14:53;;;;;;;1.10;0.70;;;24.50;56.10;;;;;;6229119;28;20460;-72
2021/08/15 14:17:54;;;;;;;0.73;0.63;;;24.50;56.10;;;;;;6228027;28;20065;-72
2021/08/15 14:20:55;;;;;;;0.80;0.63;;;24.50;56.10;;;;;;6244318;28;20520;-72
2021/08/15 14:23:56;;;;;;;0.75;0.68;;;24.50;56.10;;;;;;6244028;28;20108;-72
2021/08/15 14:26:56;;;;;;;0.80;0.70;;;24.50;56.10;;;;;;6244392;28;20014;-72
2021/08/15 14:29:57;;;;;;;1.35;0.90;;;24.50;56.10;;;;;;6243826;28;20029;-72
2021/08/15 14:32:58;;;;;;;1.05;0.90;;;24.50;56.20;;;;;;6244160;28;20484;-71
2021/08/15 14:35:58;;;;;;;0.93;0.80;;;24.50;56.20;;;;;;6244259;28;20056;-72
2021/08/15 14:38:58;;;;;;;0.60;0.60;;;24.50;56.20;;;;;;6243738;28;20069;-71
2021/08/15 14:41:59;;;;;;;0.85;0.80;;;24.50;56.80;;;;;;6242880;28;20493;-72
2021/08/15 14:44:59;;;;;;;1.13;0.77;;;24.50;56.20;;;;;;6245079;28;20108;-72
2021/08/15 14:48:01;;;;;;;0.90;0.80;;;24.50;56.20;;;;;;6244315;28;20373;-72
2021/08/15 14:51:02;;;;;;;1.75;0.85;;;24.50;56.20;;;;;;6244351;28;20026;-72
2021/08/15 14:54:03;;;;;;;0.95;0.70;;;24.50;56.20;;;;;;6244532;28;20028;-72
2021/08/15 14:57:07;;;;;;;0.90;0.80;;;24.50;56.20;;;;;;6242857;28;20389;-71
2021/08/15 15:00:08;;;;;;;0.85;0.70;;;24.50;56.20;;;;;;6243192;28;20057;-72
2021/08/15 15:03:09;;;;;;;1.05;0.82;;;24.50;56.20;;;;;;6243018;28;20057;-71
2021/08/15 15:06:10;;;;;;;0.85;0.70;;;24.50;56.20;;;;;;6244134;28;20606;-72
2021/08/15 15:09:10;;;;;;;0.90;0.73;;;24.50;56.20;;;;;;6243070;28;20029;-72
2021/08/15 15:12:11;;;;;;;0.80;0.70;;;24.50;56.30;;;;;;6243899;28;20025;-71
2021/08/15 15:15:13;;;;;;;0.80;0.70;;;24.50;56.30;;;;;;6242659;28;20068;-72
2021/08/15 15:18:14;;;;;;;1.17;0.77;;;24.50;56.30;;;;;;6243227;28;20481;-71
2021/08/15 15:21:14;;;;;;;2.45;0.73;;;24.50;56.30;;;;;;6243149;28;20080;-71
2021/08/15 15:24:14;;;;;;;1.45;0.95;;;24.50;56.30;;;;;;6242860;28;20037;-71
2021/08/15 15:27:16;;;;;;;0.60;0.60;;;24.50;56.30;;;;;;6243581;28;20017;-72
2021/08/15 15:30:20;;;;;;;0.93;0.77;;;24.50;57.00;;;;;;6242754;28;20155;-71
2021/08/15 15:33:21;;;;;;;0.90;0.63;;;24.50;56.30;;;;;;6242621;28;20061;-71
2021/08/15 15:36:22;;;;;;;1.02;0.88;;;24.50;56.30;;;;;;6242948;28;20024;-72
2021/08/15 15:39:23;;;;;;;1.00;0.80;;;24.50;56.30;;;;;;6241568;28;20033;-72
2021/08/15 15:42:23;;;;;;;0.93;0.80;;;24.50;56.30;;;;;;6242482;28;20047;-71
2021/08/15 15:45:24;;;;;;;1.02;0.75;;;24.50;56.30;;;;;;6242455;28;20029;-72
2021/08/15 15:48:25;;;;;;;0.82;0.80;;;24.50;56.30;;;;;;6242344;28;20427;-72
2021/08/15 15:51:29;;;;;;;0.80;0.73;;;24.50;56.30;;;;;;6242189;28;20071;-71